Time;durP1;ratioP1;P1;durP2;ratioP2;P2;SDS_P1;SDS_P2;PMS_P1;PMS_P2;Temp;Humidity;BMP_temperature;BMP_pressure;BME280_temperature;BME280_humidity;BME280_pressure;Samples;Min_cycle;Max_cycle;Signal;HPM_P1;HPM_P2
2022/10/30 00:00:41;;;;;;;;;;;15.60;99.90;;;;;;5092156;28;19924;-77
2022/10/30 00:03:10;;;;;;;;;;;15.60;99.90;;;;;;5105714;28;19927;-77
2022/10/30 00:05:37;;;;;;;;;;;15.60;99.90;;;;;;5091621;28;19924;-77
2022/10/30 00:08:04;;;;;;;;;;;15.60;99.90;;;;;;5089359;28;19924;-77
2022/10/30 00:10:30;;;;;;;;;;;15.50;99.90;;;;;;5091629;28;20380;-76
2022/10/30 00:12:57;;;;;;;;;;;15.50;99.90;;;;;;5090173;28;19928;-76
2022/10/30 00:15:24;;;;;;;;;;;15.50;99.90;;;;;;5093417;28;20385;-77
2022/10/30 00:17:53;;;;;;;;;;;15.50;99.90;;;;;;5089287;28;20282;-76
2022/10/30 00:20:19;;;;;;;;;;;15.50;99.90;;;;;;5094452;28;20356;-77
2022/10/30 00:22:46;;;;;;;;;;;15.50;99.90;;;;;;5097898;28;20317;-77
2022/10/30 00:25:16;;;;;;;;;;;15.50;99.90;;;;;;5093031;28;20012;-77
2022/10/30 00:27:43;;;;;;;;;;;15.50;99.90;;;;;;5094248;28;19927;-76
2022/10/30 00:30:11;;;;;;;;;;;15.50;99.90;;;;;;5096559;28;20485;-77
2022/10/30 00:32:38;;;;;;;;;;;15.40;99.90;;;;;;5094419;28;19931;-77
2022/10/30 00:35:06;;;;;;;;;;;15.40;99.90;;;;;;5088194;28;20458;-77
2022/10/30 00:37:34;;;;;;;;;;;15.40;99.90;;;;;;5095878;28;20460;-76
2022/10/30 00:40:01;;;;;;;;;;;15.40;99.90;;;;;;5089569;28;19928;-76
2022/10/30 00:42:29;;;;;;;;;;;15.40;99.90;;;;;;5087264;28;20025;-77
2022/10/30 00:44:56;;;;;;;;;;;15.40;99.90;;;;;;5088376;28;19931;-77
2022/10/30 00:47:25;;;;;;;;;;;15.40;99.90;;;;;;5094896;28;20058;-76
2022/10/30 00:49:57;;;;;;;;;;;15.40;99.90;;;;;;5090078;28;19981;-77
2022/10/30 00:52:26;;;;;;;;;;;15.40;99.90;;;;;;5088958;28;19928;-76
2022/10/30 00:54:54;;;;;;;;;;;15.30;99.90;;;;;;5089726;28;20002;-76
2022/10/30 00:57:21;;;;;;;;;;;15.30;99.90;;;;;;5089645;28;19931;-77
2022/10/30 00:59:48;;;;;;;;;;;15.30;99.90;;;;;;5087573;28;19975;-76
2022/10/30 01:02:15;;;;;;;;;;;15.30;99.90;;;;;;5090378;28;20533;-77
2022/10/30 01:04:43;;;;;;;;;;;15.30;99.90;;;;;;5089234;28;20015;-77
2022/10/30 01:07:12;;;;;;;;;;;15.30;99.90;;;;;;5087705;28;19958;-77
2022/10/30 01:09:40;;;;;;;;;;;15.20;99.90;;;;;;5084583;28;19947;-77
2022/10/30 01:12:08;;;;;;;;;;;15.20;99.90;;;;;;5092742;28;20000;-77
2022/10/30 01:14:36;;;;;;;;;;;15.20;99.90;;;;;;5087544;28;19924;-77
2022/10/30 01:17:11;;;;;;;;;;;15.20;99.90;;;;;;5086123;28;19932;-76
2022/10/30 01:19:41;;;;;;;;;;;15.20;99.90;;;;;;5087226;28;19928;-76
2022/10/30 01:22:19;;;;;;;;;;;15.20;99.90;;;;;;5086520;28;20665;-76
2022/10/30 01:24:51;;;;;;;;;;;15.20;99.90;;;;;;5088286;28;19924;-77
2022/10/30 01:27:26;;;;;;;;;;;15.20;99.90;;;;;;5084988;28;19978;-77
2022/10/30 01:29:58;;;;;;;;;;;15.20;99.90;;;;;;5086733;28;19935;-77
2022/10/30 01:32:37;;;;;;;;;;;15.10;99.90;;;;;;5086475;28;19985;-77
2022/10/30 01:35:06;;;;;;;;;;;15.10;99.90;;;;;;5082514;28;19989;-77
2022/10/30 01:37:34;;;;;;;;;;;15.10;99.90;;;;;;5087547;28;20390;-76
2022/10/30 01:40:08;;;;;;;;;;;15.10;99.90;;;;;;5084265;28;19930;-76
2022/10/30 01:42:44;;;;;;;;;;;15.10;99.90;;;;;;5077093;28;19931;-76
2022/10/30 01:45:15;;;;;;;;;;;15.10;99.90;;;;;;5085997;28;19954;-76
2022/10/30 01:47:49;;;;;;;;;;;15.10;99.90;;;;;;5088375;28;19974;-76
2022/10/30 01:50:21;;;;;;;;;;;15.10;99.90;;;;;;5090701;28;19924;-77
2022/10/30 01:52:52;;;;;;;;;;;15.00;99.90;;;;;;5073976;28;20010;-76
2022/10/30 01:55:29;;;;;;;;;;;15.00;99.90;;;;;;5084084;28;19935;-77
2022/10/30 01:57:59;;;;;;;;;;;15.00;99.90;;;;;;5085448;28;19930;-76
2022/10/30 02:00:27;;;;;;;;;;;15.00;99.90;;;;;;5089158;28;19956;-76
2022/10/30 02:02:54;;;;;;;;;;;15.00;99.90;;;;;;5082734;28;19930;-76
2022/10/30 02:05:27;;;;;;;;;;;15.00;99.90;;;;;;5084584;28;19950;-76
2022/10/30 02:07:54;;;;;;;;;;;15.00;99.90;;;;;;5080234;28;19924;-77
2022/10/30 02:10:21;;;;;;;;;;;15.00;99.90;;;;;;5083776;28;19931;-77
2022/10/30 02:12:50;;;;;;;;;;;14.90;99.90;;;;;;5089147;28;19924;-76
2022/10/30 02:15:17;;;;;;;;;;;14.90;99.90;;;;;;5079518;28;19930;-77
2022/10/30 02:17:44;;;;;;;;;;;14.90;99.90;;;;;;5090244;28;19925;-76
2022/10/30 02:20:16;;;;;;;;;;;14.90;99.90;;;;;;5089009;28;19924;-76
2022/10/30 02:22:42;;;;;;;;;;;14.90;99.90;;;;;;5086772;28;19935;-77
2022/10/30 02:25:09;;;;;;;;;;;14.80;99.90;;;;;;5091467;28;19967;-76
2022/10/30 02:27:36;;;;;;;;;;;14.80;99.90;;;;;;5084871;28;19973;-76
2022/10/30 02:30:06;;;;;;;;;;;14.80;99.90;;;;;;5091924;28;19932;-77
2022/10/30 02:32:34;;;;;;;;;;;14.90;99.90;;;;;;5081487;28;19946;-76
2022/10/30 02:35:01;;;;;;;;;;;14.80;99.90;;;;;;5084617;28;19931;-76
2022/10/30 02:37:31;;;;;;;;;;;14.80;99.90;;;;;;5084193;28;19928;-76
2022/10/30 02:39:58;;;;;;;;;;;14.80;99.90;;;;;;5085238;28;19963;-77
2022/10/30 02:42:25;;;;;;;;;;;14.80;99.90;;;;;;5082790;28;20378;-76
2022/10/30 02:44:53;;;;;;;;;;;14.70;99.90;;;;;;5086512;28;19924;-76
2022/10/30 02:47:20;;;;;;;;;;;14.70;99.90;;;;;;5086125;28;20440;-76
2022/10/30 02:49:47;;;;;;;;;;;14.70;99.90;;;;;;5087536;28;20635;-77
2022/10/30 02:52:13;;;;;;;;;;;14.70;99.90;;;;;;5081496;28;19928;-76
2022/10/30 02:54:43;;;;;;;;;;;14.80;99.90;;;;;;5087674;28;20378;-76
2022/10/30 02:57:10;;;;;;;;;;;14.70;99.90;;;;;;5085301;28;20297;-76
2022/10/30 02:59:38;;;;;;;;;;;14.70;99.90;;;;;;5082089;28;19930;-77
2022/10/30 03:02:04;;;;;;;;;;;14.70;99.90;;;;;;5081877;28;20425;-76
2022/10/30 03:04:31;;;;;;;;;;;14.70;99.90;;;;;;5091070;28;19923;-76
2022/10/30 03:06:58;;;;;;;;;;;14.60;99.90;;;;;;5087518;28;20349;-76
2022/10/30 03:09:25;;;;;;;;;;;14.60;99.90;;;;;;5079516;28;19924;-77
2022/10/30 03:11:53;;;;;;;;;;;14.60;99.90;;;;;;5081107;28;20317;-76
2022/10/30 03:14:22;;;;;;;;;;;14.60;99.90;;;;;;5081923;28;19924;-77
2022/10/30 03:16:51;;;;;;;;;;;14.60;99.90;;;;;;5078985;28;20030;-77
2022/10/30 03:19:18;;;;;;;;;;;14.60;99.90;;;;;;5085670;28;19925;-77
2022/10/30 03:21:45;;;;;;;;;;;14.60;99.90;;;;;;5085439;28;19932;-77
2022/10/30 03:24:14;;;;;;;;;;;14.60;99.90;;;;;;5081455;28;19927;-76
2022/10/30 03:26:40;;;;;;;;;;;14.50;99.90;;;;;;5088588;28;20014;-76
2022/10/30 03:29:09;;;;;;;;;;;14.50;99.90;;;;;;5089510;28;19974;-76
2022/10/30 03:31:36;;;;;;;;;;;14.50;99.90;;;;;;5091857;28;20297;-77
2022/10/30 03:34:19;;;;;;;;;;;14.50;99.90;;;;;;5097017;28;19934;-76
2022/10/30 03:36:45;;;;;;;;;;;14.50;99.90;;;;;;5089137;28;20018;-77
2022/10/30 03:39:13;;;;;;;;;;;14.50;99.90;;;;;;5084781;28;19978;-76
2022/10/30 03:41:43;;;;;;;;;;;14.50;99.90;;;;;;5094779;28;20308;-77
2022/10/30 03:44:11;;;;;;;;;;;14.40;99.90;;;;;;5099803;28;20028;-76
2022/10/30 03:46:38;;;;;;;;;;;14.40;99.90;;;;;;5089861;28;19924;-76
2022/10/30 03:49:21;;;;;;;;;;;14.40;99.90;;;;;;5075351;28;20414;-76
2022/10/30 03:51:47;;;;;;;;;;;14.40;99.90;;;;;;5084979;28;19925;-76
2022/10/30 03:54:14;;;;;;;;;;;14.40;99.90;;;;;;5087963;28;20368;-76
2022/10/30 03:56:41;;;;;;;;;;;14.40;99.90;;;;;;5085862;28;19975;-76
2022/10/30 03:59:13;;;;;;;;;;;14.40;99.90;;;;;;5079806;28;19932;-77
2022/10/30 04:01:41;;;;;;;;;;;14.30;99.90;;;;;;5084575;28;19936;-76
2022/10/30 04:04:08;;;;;;;;;;;14.30;99.90;;;;;;5086083;28;19932;-76
2022/10/30 04:06:35;;;;;;;;;;;14.30;99.90;;;;;;5087935;28;19924;-76
2022/10/30 04:09:02;;;;;;;;;;;14.30;99.90;;;;;;5083412;28;20332;-77
2022/10/30 04:11:35;;;;;;;;;;;14.30;99.90;;;;;;5082582;28;19930;-77
2022/10/30 04:14:01;;;;;;;;;;;14.30;99.90;;;;;;5088542;28;20368;-76
2022/10/30 04:16:29;;;;;;;;;;;14.30;99.90;;;;;;5082816;28;19928;-77
2022/10/30 04:18:58;;;;;;;;;;;14.20;99.90;;;;;;5089104;28;20021;-77
2022/10/30 04:21:24;;;;;;;;;;;14.20;99.90;;;;;;5085949;28;19932;-76
2022/10/30 04:23:52;;;;;;;;;;;14.20;99.90;;;;;;5082900;28;19959;-77
2022/10/30 04:26:24;;;;;;;;;;;14.20;99.90;;;;;;5085203;28;20284;-76
2022/10/30 04:28:50;;;;;;;;;;;14.20;99.90;;;;;;5091725;28;19932;-76
2022/10/30 04:31:17;;;;;;;;;;;14.20;99.90;;;;;;5090792;28;20023;-77
2022/10/30 04:33:45;;;;;;;;;;;14.10;99.90;;;;;;5081009;28;19931;-76
2022/10/30 04:36:12;;;;;;;;;;;14.10;99.90;;;;;;5090832;28;19958;-76
2022/10/30 04:38:39;;;;;;;;;;;14.10;99.90;;;;;;5085582;28;19965;-76
2022/10/30 04:41:09;;;;;;;;;;;14.10;99.90;;;;;;5086592;28;20011;-76
2022/10/30 04:43:50;;;;;;;;;;;14.10;99.90;;;;;;5092479;28;19924;-76
2022/10/30 04:46:18;;;;;;;;;;;14.10;99.90;;;;;;5087566;28;19923;-76
2022/10/30 04:48:46;;;;;;;;;;;14.10;99.90;;;;;;5079548;28;19967;-77
2022/10/30 04:51:14;;;;;;;;;;;14.00;99.90;;;;;;5084192;28;19932;-77
2022/10/30 04:53:42;;;;;;;;;;;14.00;99.90;;;;;;5085473;28;20023;-76
2022/10/30 04:56:13;;;;;;;;;;;14.00;99.90;;;;;;5078159;28;20023;-77
2022/10/30 04:58:40;;;;;;;;;;;14.00;99.90;;;;;;5088469;28;19973;-77
2022/10/30 05:01:08;;;;;;;;;;;14.00;99.90;;;;;;5104214;27;19932;-77
2022/10/30 05:03:36;;;;;;;;;;;14.00;99.90;;;;;;5077953;28;19930;-76
2022/10/30 05:06:22;;;;;;;;;;;14.00;99.90;;;;;;5088196;28;19924;-76
2022/10/30 05:08:48;;;;;;;;;;;14.00;99.90;;;;;;5088169;28;19928;-76
2022/10/30 05:11:37;;;;;;;;;;;13.90;99.90;;;;;;5086209;28;20029;-76
2022/10/30 05:14:03;;;;;;;;;;;13.90;99.90;;;;;;5087400;28;19973;-76
2022/10/30 05:16:31;;;;;;;;;;;13.90;99.90;;;;;;5088691;28;20402;-76
2022/10/30 05:18:59;;;;;;;;;;;13.90;99.90;;;;;;5085302;28;20405;-76
2022/10/30 05:21:27;;;;;;;;;;;13.90;99.90;;;;;;5082575;28;19932;-76
2022/10/30 05:23:54;;;;;;;;;;;13.90;99.90;;;;;;5089118;28;20007;-77
2022/10/30 05:26:21;;;;;;;;;;;13.90;99.90;;;;;;5086007;28;20183;-76
2022/10/30 05:28:48;;;;;;;;;;;13.80;99.90;;;;;;5087599;28;19939;-77
2022/10/30 05:31:15;;;;;;;;;;;13.80;99.90;;;;;;5087157;28;19931;-77
2022/10/30 05:34:00;;;;;;;;;;;13.80;99.90;;;;;;5089744;28;19977;-76
2022/10/30 05:36:28;;;;;;;;;;;13.80;99.90;;;;;;5088105;28;19928;-77
2022/10/30 05:38:55;;;;;;;;;;;13.80;99.90;;;;;;5083858;28;21842;-76
2022/10/30 05:41:35;;;;;;;;;;;13.80;99.90;;;;;;5080940;28;20312;-77
2022/10/30 05:44:02;;;;;;;;;;;13.80;99.90;;;;;;5084720;28;19943;-77
2022/10/30 05:46:30;;;;;;;;;;;13.70;99.90;;;;;;5084129;28;19925;-76
2022/10/30 05:49:05;;;;;;;;;;;13.70;99.90;;;;;;5080317;28;19932;-76
2022/10/30 05:51:33;;;;;;;;;;;13.70;99.90;;;;;;5081174;28;19954;-76
2022/10/30 05:54:05;;;;;;;;;;;13.70;99.90;;;;;;5085626;28;19924;-76
2022/10/30 05:56:33;;;;;;;;;;;13.70;99.90;;;;;;5089748;28;20466;-76
2022/10/30 05:59:00;;;;;;;;;;;13.70;99.90;;;;;;5082306;28;20412;-76
2022/10/30 06:01:27;;;;;;;;;;;13.70;99.90;;;;;;5084864;28;19935;-76
2022/10/30 06:03:57;;;;;;;;;;;13.60;99.90;;;;;;5083076;28;19930;-76
2022/10/30 06:06:24;;;;;;;;;;;13.60;99.90;;;;;;5085887;28;19924;-76
2022/10/30 06:08:52;;;;;;;;;;;13.60;99.90;;;;;;5084450;28;19932;-76
2022/10/30 06:11:48;;;;;;;;;;;13.60;99.90;;;;;;5078038;28;20305;-76
2022/10/30 06:14:16;;;;;;;;;;;13.60;99.90;;;;;;5083451;28;19924;-76
2022/10/30 06:16:46;;;;;;;;;;;13.60;99.90;;;;;;5077613;28;19947;-76
2022/10/30 06:19:16;;;;;;;;;;;;;;;;;;5095423;28;20378;-76
2022/10/30 06:21:43;;;;;;;;;;;13.60;99.90;;;;;;5084219;28;19953;-77
2022/10/30 06:24:17;;;;;;;;;;;13.60;99.90;;;;;;5089340;28;19989;-77
2022/10/30 06:27:04;;;;;;;;;;;13.50;99.90;;;;;;5054211;28;19932;-76
2022/10/30 06:29:31;;;;;;;;;;;13.50;99.90;;;;;;5081021;28;19925;-76
2022/10/30 06:31:58;;;;;;;;;;;13.50;99.90;;;;;;5091628;28;19928;-76
2022/10/30 06:34:26;;;;;;;;;;;13.50;99.90;;;;;;5084531;28;19928;-76
2022/10/30 06:36:53;;;;;;;;;;;13.50;99.90;;;;;;5086232;28;20312;-76
2022/10/30 06:39:21;;;;;;;;;;;13.50;99.90;;;;;;5090757;28;20508;-77
2022/10/30 06:42:07;;;;;;;;;;;13.40;99.90;;;;;;5082106;28;19924;-77
2022/10/30 06:45:01;;;;;;;;;;;13.40;99.90;;;;;;5078849;28;19932;-77
2022/10/30 06:47:27;;;;;;;;;;;13.40;99.90;;;;;;5077815;28;20416;-76
2022/10/30 06:49:54;;;;;;;;;;;13.40;99.90;;;;;;5057486;28;19996;-76
2022/10/30 06:52:21;;;;;;;;;;;13.40;99.90;;;;;;5068697;28;19927;-76
2022/10/30 06:54:51;;;;;;;;;;;13.40;99.90;;;;;;5080526;28;19931;-80
2022/10/30 06:57:36;;;;;;;;;;;13.30;99.90;;;;;;5076815;28;19959;-80
2022/10/30 07:00:29;;;;;;;;;;;13.30;99.90;;;;;;5049038;28;19924;-76
2022/10/30 07:03:17;;;;;;;;;;;13.30;99.90;;;;;;5075072;28;19927;-76
2022/10/30 07:05:44;;;;;;;;;;;13.30;99.90;;;;;;5070284;28;20730;-76
2022/10/30 07:08:11;;;;;;;;;;;13.30;99.90;;;;;;5073595;28;19936;-76
2022/10/30 07:10:39;;;;;;;;;;;13.30;99.90;;;;;;5083908;28;19924;-77
2022/10/30 07:13:35;;;;;;;;;;;13.20;99.90;;;;;;5077338;28;19932;-76
2022/10/30 07:16:24;;;;;;;;;;;13.20;99.90;;;;;;5078791;28;19950;-76
2022/10/30 07:18:52;;;;;;;;;;;13.20;99.90;;;;;;5083625;28;19940;-79
2022/10/30 07:21:18;;;;;;;;;;;13.20;99.90;;;;;;5102256;27;19924;-79
2022/10/30 07:23:45;;;;;;;;;;;13.20;99.90;;;;;;5080141;28;20428;-76
2022/10/30 07:26:23;;;;;;;;;;;13.20;99.90;;;;;;5077470;28;19928;-76
2022/10/30 07:28:51;;;;;;;;;;;13.10;99.90;;;;;;5079538;28;19935;-76
2022/10/30 07:31:20;;;;;;;;;;;13.10;99.90;;;;;;5073770;28;19982;-76
2022/10/30 07:34:08;;;;;;;;;;;13.00;99.90;;;;;;5080859;28;19932;-76
2022/10/30 07:37:01;;;;;;;;;;;13.00;99.90;;;;;;5066878;28;19924;-76
2022/10/30 07:39:44;;;;;;;;;;;13.00;99.90;;;;;;5068798;28;20018;-76
2022/10/30 07:42:21;;;;;;;;;;;13.00;99.90;;;;;;5072884;28;20303;-76
2022/10/30 07:45:07;;;;;;;;;;;13.00;99.90;;;;;;5073310;28;19981;-76
2022/10/30 07:47:40;;;;;;;;;;;13.00;99.90;;;;;;5075186;28;20887;-76
2022/10/30 07:50:28;;;;;;;;;;;13.00;99.90;;;;;;5076836;28;19956;-76
2022/10/30 07:52:55;;;;;;;;;;;13.00;99.90;;;;;;5069431;28;20013;-76
2022/10/30 07:55:26;;;;;;;;;;;13.00;99.90;;;;;;5078001;28;19932;-76
2022/10/30 07:57:54;;;;;;;;;;;13.00;99.90;;;;;;5082818;28;19979;-76
2022/10/30 08:00:27;;;;;;;;;;;13.00;99.90;;;;;;5079293;28;20028;-76
2022/10/30 08:03:02;;;;;;;;;;;12.90;99.90;;;;;;5075110;28;19925;-76
2022/10/30 08:05:45;;;;;;;;;;;12.90;99.90;;;;;;5067587;28;19935;-75
2022/10/30 08:08:14;;;;;;;;;;;12.90;99.90;;;;;;5077086;28;20014;-76
2022/10/30 08:10:42;;;;;;;;;;;12.90;99.90;;;;;;5071283;28;19973;-76
2022/10/30 08:13:10;;;;;;;;;;;12.90;99.90;;;;;;5070455;28;19924;-75
2022/10/30 08:15:38;;;;;;;;;;;12.90;99.90;;;;;;5066741;28;19960;-76
2022/10/30 08:18:05;;;;;;;;;;;12.80;99.90;;;;;;5078340;28;19934;-74
2022/10/30 08:20:33;;;;;;;;;;;12.80;99.90;;;;;;5079444;28;20447;-76
2022/10/30 08:23:00;;;;;;;;;;;12.80;99.90;;;;;;5081560;28;20303;-76
2022/10/30 08:25:27;;;;;;;;;;;12.80;99.90;;;;;;5080017;28;19938;-76
2022/10/30 08:27:55;;;;;;;;;;;12.80;99.90;;;;;;5080769;28;20420;-76
2022/10/30 08:30:26;;;;;;;;;;;12.80;99.90;;;;;;5078532;28;20647;-76
2022/10/30 08:32:56;;;;;;;;;;;12.80;99.90;;;;;;5081589;28;20386;-76
2022/10/30 08:35:50;;;;;;;;;;;12.80;99.90;;;;;;5088751;28;19928;-76
2022/10/30 08:38:18;;;;;;;;;;;12.80;99.90;;;;;;5085711;28;20375;-80
2022/10/30 08:40:49;;;;;;;;;;;12.70;99.90;;;;;;5101021;27;19928;-78
2022/10/30 08:43:17;;;;;;;;;;;12.80;99.90;;;;;;5080773;28;19934;-78
2022/10/30 08:45:45;;;;;;;;;;;12.80;99.90;;;;;;5099790;27;20410;-80
2022/10/30 08:48:14;;;;;;;;;;;12.80;99.90;;;;;;5078089;28;20020;-85
2022/10/30 08:50:43;;;;;;;;;;;12.80;99.90;;;;;;5078880;28;19959;-79
2022/10/30 08:53:13;;;;;;;;;;;12.80;99.90;;;;;;5079815;28;19999;-77
2022/10/30 08:55:41;;;;;;;;;;;12.80;99.90;;;;;;5082424;28;19959;-77
2022/10/30 08:58:32;;;;;;;;;;;12.70;99.90;;;;;;5077427;28;19931;-76
2022/10/30 09:01:00;;;;;;;;;;;12.80;99.90;;;;;;5080499;28;19990;-77
2022/10/30 09:03:46;;;;;;;;;;;12.70;99.90;;;;;;5078581;28;19931;-76
2022/10/30 09:06:32;;;;;;;;;;;12.80;99.90;;;;;;5085431;28;19980;-77
2022/10/30 09:09:23;;;;;;;;;;;12.70;99.90;;;;;;5085780;28;20080;-76
2022/10/30 09:11:53;;;;;;;;;;;12.70;99.90;;;;;;5081981;28;19960;-89
2022/10/30 09:14:20;;;;;;;;;;;12.80;99.90;;;;;;5075006;28;19932;-76
2022/10/30 09:16:48;;;;;;;;;;;12.80;99.90;;;;;;5072824;28;20382;-76
2022/10/30 09:19:18;;;;;;;;;;;12.80;99.90;;;;;;5076940;28;20015;-76
2022/10/30 09:21:46;;;;;;;;;;;12.80;99.90;;;;;;5076039;28;19932;-75
2022/10/30 09:24:12;;;;;;;;;;;12.80;99.90;;;;;;5074583;28;19968;-76
2022/10/30 09:26:41;;;;;;;;;;;12.70;99.90;;;;;;5076914;28;19931;-75
2022/10/30 09:29:22;;;;;;;;;;;12.80;99.90;;;;;;5073297;28;20037;-76
2022/10/30 09:31:56;;;;;;;;;;;12.80;99.90;;;;;;5074985;28;20394;-76
2022/10/30 09:34:25;;;;;;;;;;;12.80;99.90;;;;;;5075445;28;19924;-75
2022/10/30 09:37:03;;;;;;;;;;;12.80;99.90;;;;;;5073084;28;20026;-75
2022/10/30 09:39:34;;;;;;;;;;;12.80;99.90;;;;;;5075669;28;19932;-75
2022/10/30 09:42:08;;;;;;;;;;;12.80;99.90;;;;;;5076372;28;20337;-75
2022/10/30 09:44:44;;;;;;;;;;;12.90;99.90;;;;;;5070159;28;19928;-75
2022/10/30 09:47:19;;;;;;;;;;;12.80;99.90;;;;;;5071051;28;19964;-75
2022/10/30 09:49:53;;;;;;;;;;;12.80;99.90;;;;;;5067706;28;19991;-75
2022/10/30 09:52:23;;;;;;;;;;;12.80;99.90;;;;;;5077503;28;20027;-75
2022/10/30 09:54:56;;;;;;;;;;;12.80;99.90;;;;;;5089707;28;20375;-75
2022/10/30 09:57:28;;;;;;;;;;;12.90;99.90;;;;;;5076756;28;19930;-75
2022/10/30 10:00:00;;;;;;;;;;;12.90;99.90;;;;;;5076476;28;19981;-76
2022/10/30 10:02:32;;;;;;;;;;;13.00;99.90;;;;;;5077618;28;20034;-76
2022/10/30 10:05:00;;;;;;;;;;;12.90;99.90;;;;;;5071074;28;19923;-75
2022/10/30 10:07:47;;;;;;;;;;;12.90;99.90;;;;;;5079897;28;20073;-75
2022/10/30 10:10:38;;;;;;;;;;;12.90;99.90;;;;;;5052411;28;19928;-76
2022/10/30 10:13:23;;;;;;;;;;;12.90;99.90;;;;;;5076387;28;20091;-75
2022/10/30 10:15:51;;;;;;;;;;;12.90;99.90;;;;;;5077704;28;19939;-75
2022/10/30 10:18:23;;;;;;;;;;;12.90;99.90;;;;;;5079857;28;19931;-75
2022/10/30 10:20:52;;;;;;;;;;;13.00;99.90;;;;;;5070271;28;19991;-75
2022/10/30 10:23:21;;;;;;;;;;;13.00;99.90;;;;;;5070740;28;19931;-76
2022/10/30 10:25:52;;;;;;;;;;;13.00;99.90;;;;;;5074443;28;20390;-75
2022/10/30 10:28:26;;;;;;;;;;;13.00;99.90;;;;;;5074988;28;20391;-76
2022/10/30 10:30:55;;;;;;;;;;;13.00;99.90;;;;;;5063238;28;20018;-75
2022/10/30 10:33:33;;;;;;;;;;;13.00;99.90;;;;;;5059495;28;20022;-75
2022/10/30 10:36:03;;;;;;;;;;;13.00;99.90;;;;;;5064880;28;20394;-75
2022/10/30 10:38:36;;;;;;;;;;;13.00;99.90;;;;;;5059646;28;19977;-75
2022/10/30 10:41:09;;;;;;;;;;;13.00;99.90;;;;;;5070700;28;20590;-75
2022/10/30 10:43:39;;;;;;;;;;;13.10;99.90;;;;;;5072194;28;19998;-75
2022/10/30 10:46:14;;;;;;;;;;;13.10;99.90;;;;;;5072460;28;19979;-75
2022/10/30 10:48:48;;;;;;;;;;;13.10;99.90;;;;;;5074050;28;20026;-75
2022/10/30 10:51:16;;;;;;;;;;;13.10;99.90;;;;;;5071831;28;20220;-75
2022/10/30 10:53:46;;;;;;;;;;;13.20;99.90;;;;;;5070704;28;19925;-75
2022/10/30 10:56:13;;;;;;;;;;;13.20;99.90;;;;;;5067083;28;19928;-77
2022/10/30 10:58:44;;;;;;;;;;;13.20;99.90;;;;;;5065198;28;19928;-76
2022/10/30 11:01:14;;;;;;;;;;;13.30;99.90;;;;;;5072992;28;20443;-76
2022/10/30 11:03:47;;;;;;;;;;;13.30;99.90;;;;;;5070934;28;19924;-74
2022/10/30 11:06:20;;;;;;;;;;;13.30;99.90;;;;;;5072336;28;20293;-75
2022/10/30 11:08:47;;;;;;;;;;;13.30;99.90;;;;;;5074624;28;19924;-74
2022/10/30 11:11:14;;;;;;;;;;;13.30;99.90;;;;;;5072007;28;20002;-74
2022/10/30 11:13:42;;;;;;;;;;;13.30;99.90;;;;;;5072611;28;19935;-75
2022/10/30 11:16:13;;;;;;;;;;;13.40;99.90;;;;;;5052942;28;20233;-75
2022/10/30 11:18:40;;;;;;;;;;;13.40;99.90;;;;;;5067311;28;20577;-74
2022/10/30 11:21:09;;;;;;;;;;;13.40;99.90;;;;;;5068885;28;20464;-73
2022/10/30 11:23:41;;;;;;;;;;;13.40;99.90;;;;;;5076238;28;19924;-78
2022/10/30 11:26:38;;;;;;;;;;;13.40;99.90;;;;;;5076131;28;19987;-74
2022/10/30 11:29:11;;;;;;;;;;;13.50;99.90;;;;;;5026146;28;19964;-79
2022/10/30 11:31:39;;;;;;;;;;;13.50;99.90;;;;;;5058018;28;19924;-75
2022/10/30 11:34:28;;;;;;;;;;;13.50;99.90;;;;;;5069103;28;19932;-73
2022/10/30 11:36:57;;;;;;;;;;;13.60;99.90;;;;;;5076524;28;20027;-74
2022/10/30 11:39:24;;;;;;;;;;;13.60;99.90;;;;;;5059021;28;19928;-75
2022/10/30 11:41:55;;;;;;;;;;;13.60;99.90;;;;;;5069135;28;20023;-75
2022/10/30 11:44:23;;;;;;;;;;;13.60;99.90;;;;;;5070924;28;20399;-74
2022/10/30 11:46:54;;;;;;;;;;;13.60;99.90;;;;;;5069622;28;19932;-77
2022/10/30 11:49:28;;;;;;;;;;;13.70;99.90;;;;;;5078485;28;20002;-76
2022/10/30 11:51:57;;;;;;;;;;;13.70;99.90;;;;;;5075105;28;20056;-75
2022/10/30 11:54:24;;;;;;;;;;;13.70;99.90;;;;;;5080223;28;20370;-76
2022/10/30 11:56:52;;;;;;;;;;;13.70;99.90;;;;;;5067054;28;20023;-76
2022/10/30 11:59:21;;;;;;;;;;;13.80;99.90;;;;;;5077293;28;20035;-77
2022/10/30 12:01:57;;;;;;;;;;;13.80;99.90;;;;;;5073664;28;20388;-76
2022/10/30 12:04:26;;;;;;;;;;;13.80;99.90;;;;;;5076752;28;19975;-76
2022/10/30 12:07:06;;;;;;;;;;;13.90;99.90;;;;;;5077299;28;19928;-75
2022/10/30 12:09:41;;;;;;;;;;;13.90;99.90;;;;;;5078976;28;19932;-77
2022/10/30 12:12:10;;;;;;;;;;;14.00;99.90;;;;;;5074813;28;19928;-79
2022/10/30 12:14:37;;;;;;;;;;;14.00;99.90;;;;;;5076234;28;19975;-78
2022/10/30 12:17:04;;;;;;;;;;;14.00;99.90;;;;;;5074166;28;19973;-75
2022/10/30 12:19:31;;;;;;;;;;;14.10;99.90;;;;;;5082465;28;19931;-75
2022/10/30 12:22:00;;;;;;;;;;;14.10;99.90;;;;;;5073491;28;19975;-75
2022/10/30 12:24:29;;;;;;;;;;;14.10;99.90;;;;;;5082649;28;19932;-75
2022/10/30 12:27:00;;;;;;;;;;;14.20;99.90;;;;;;5071034;28;20286;-75
2022/10/30 12:29:35;;;;;;;;;;;14.20;99.90;;;;;;5073552;28;19942;-75
2022/10/30 12:32:05;;;;;;;;;;;14.30;99.90;;;;;;5077096;28;19931;-75
2022/10/30 12:34:37;;;;;;;;;;;14.30;99.90;;;;;;5079075;28;19928;-76
2022/10/30 12:37:06;;;;;;;;;;;14.30;99.90;;;;;;5075506;28;20404;-75
2022/10/30 12:39:41;;;;;;;;;;;14.30;99.90;;;;;;5080606;28;20028;-74
2022/10/30 12:42:08;;;;;;;;;;;;;;;;;;5080002;28;21178;-75
2022/10/30 12:44:39;;;;;;;;;;;14.40;99.90;;;;;;5076298;28;20011;-75
2022/10/30 12:47:08;;;;;;;;;;;14.50;99.90;;;;;;5069842;28;19935;-76
2022/10/30 12:49:36;;;;;;;;;;;;;;;;;;5077800;28;19927;-75
2022/10/30 12:52:05;;;;;;;;;;;14.60;99.90;;;;;;5077222;28;19928;-75
2022/10/30 12:54:39;;;;;;;;;;;14.60;99.90;;;;;;5073569;28;19939;-76
2022/10/30 12:57:08;;;;;;;;;;;14.80;99.90;;;;;;5071865;28;20015;-76
2022/10/30 12:59:43;;;;;;;;;;;15.20;99.90;;;;;;5067064;28;19928;-76
2022/10/30 13:02:13;;;;;;;;;;;15.50;99.90;;;;;;5074898;28;20040;-77
2022/10/30 13:04:42;;;;;;;;;;;15.80;99.90;;;;;;5067146;28;19959;-76
2022/10/30 13:07:15;;;;;;;;;;;15.90;99.90;;;;;;5069307;28;20542;-76
2022/10/30 13:09:48;;;;;;;;;;;16.10;99.90;;;;;;5076640;28;19931;-76
2022/10/30 13:12:17;;;;;;;;;;;16.20;99.90;;;;;;5066616;28;20037;-76
2022/10/30 13:14:48;;;;;;;;;;;16.30;99.90;;;;;;5070027;28;20004;-76
2022/10/30 13:17:15;;;;;;;;;;;16.40;99.90;;;;;;5076428;28;19939;-77
2022/10/30 13:19:44;;;;;;;;;;;16.50;99.90;;;;;;5080986;28;19924;-76
2022/10/30 13:22:15;;;;;;;;;;;16.60;99.90;;;;;;5073467;28;19924;-76
2022/10/30 13:24:46;;;;;;;;;;;16.60;99.90;;;;;;5081368;28;20416;-76
2022/10/30 13:27:16;;;;;;;;;;;16.80;99.90;;;;;;5067363;28;19924;-76
2022/10/30 13:29:46;;;;;;;;;;;16.90;99.90;;;;;;5078144;28;19924;-76
2022/10/30 13:32:27;;;;;;;;;;;16.80;99.90;;;;;;5080491;28;19959;-76
2022/10/30 13:35:01;;;;;;;;;;;16.80;99.90;;;;;;5079223;28;20370;-76
2022/10/30 13:37:31;;;;;;;;;;;16.60;99.90;;;;;;5075166;28;19985;-76
2022/10/30 13:40:04;;;;;;;;;;;16.40;99.90;;;;;;5086722;28;19932;-76
2022/10/30 13:42:44;;;;;;;;;;;16.30;99.90;;;;;;5075716;28;20015;-76
2022/10/30 13:45:23;;;;;;;;;;;16.30;99.90;;;;;;5077097;28;20079;-76
2022/10/30 13:47:56;;;;;;;;;;;16.30;99.90;;;;;;5078153;28;19924;-76
2022/10/30 13:50:33;;;;;;;;;;;16.30;99.90;;;;;;5078474;28;19932;-76
2022/10/30 13:53:01;;;;;;;;;;;16.30;99.90;;;;;;5068906;28;19932;-76
2022/10/30 13:55:29;;;;;;;;;;;16.30;99.90;;;;;;5063574;28;20584;-76
2022/10/30 13:58:00;;;;;;;;;;;16.30;99.90;;;;;;5082246;28;20023;-76
2022/10/30 14:00:35;;;;;;;;;;;16.40;99.90;;;;;;5081735;28;19968;-76
2022/10/30 14:03:19;;;;;;;;;;;16.40;99.90;;;;;;5075000;28;19928;-76
2022/10/30 14:05:49;;;;;;;;;;;16.40;99.90;;;;;;5070693;28;20042;-76
2022/10/30 14:08:20;;;;;;;;;;;16.40;99.90;;;;;;5085517;28;19934;-76
2022/10/30 14:10:48;;;;;;;;;;;16.50;99.90;;;;;;5080982;28;19932;-76
2022/10/30 14:13:17;;;;;;;;;;;16.50;99.90;;;;;;5083519;28;19924;-76
2022/10/30 14:15:44;;;;;;;;;;;16.50;99.90;;;;;;5069486;28;19924;-76
2022/10/30 14:18:26;;;;;;;;;;;16.50;99.90;;;;;;5088519;28;19963;-76
2022/10/30 14:20:53;;;;;;;;;;;16.60;99.90;;;;;;5075736;28;19928;-76
2022/10/30 14:23:21;;;;;;;;;;;16.60;99.90;;;;;;5078632;28;20309;-76
2022/10/30 14:26:03;;;;;;;;;;;16.60;99.90;;;;;;5080985;28;20512;-75
2022/10/30 14:28:30;;;;;;;;;;;16.60;99.90;;;;;;5077518;28;19928;-76
2022/10/30 14:31:01;;;;;;;;;;;16.60;99.90;;;;;;5074715;28;19955;-76
2022/10/30 14:33:40;;;;;;;;;;;16.60;99.90;;;;;;5082734;28;19932;-76
2022/10/30 14:36:21;;;;;;;;;;;16.70;99.90;;;;;;5076365;28;20432;-78
2022/10/30 14:38:55;;;;;;;;;;;16.70;99.90;;;;;;5084906;28;20007;-76
2022/10/30 14:41:37;;;;;;;;;;;16.70;99.90;;;;;;5070643;28;19924;-75